sensor_id;sensor_type;location;lat;lon;timestamp;temperature;humidity
18073;DHT22;9161;47.348;9.648;2022-09-12T00:04:28;11.60;99.90
18073;DHT22;9161;47.348;9.648;2022-09-12T00:09:13;11.50;99.90
18073;DHT22;9161;47.348;9.648;2022-09-12T00:13:58;11.70;99.90
18073;DHT22;9161;47.348;9.648;2022-09-12T00:18:42;11.60;99.90
18073;DHT22;9161;47.348;9.648;2022-09-12T00:23:29;11.40;99.90
18073;DHT22;9161;47.348;9.648;2022-09-12T00:28:15;11.30;99.90
18073;DHT22;9161;47.348;9.648;2022-09-12T00:32:58;11.30;99.90
18073;DHT22;9161;47.348;9.648;2022-09-12T00:37:42;11.20;99.90
18073;DHT22;9161;47.348;9.648;2022-09-12T00:42:27;11.10;99.90
18073;DHT22;9161;47.348;9.648;2022-09-12T00:47:13;11.20;99.90
18073;DHT22;9161;47.348;9.648;2022-09-12T00:52:02;11.20;99.90
18073;DHT22;9161;47.348;9.648;2022-09-12T00:56:49;11.10;99.90
18073;DHT22;9161;47.348;9.648;2022-09-12T01:01:36;10.90;99.90
18073;DHT22;9161;47.348;9.648;2022-09-12T01:06:23;11.00;99.90
18073;DHT22;9161;47.348;9.648;2022-09-12T01:11:08;11.00;99.90
18073;DHT22;9161;47.348;9.648;2022-09-12T01:15:54;10.80;99.90
18073;DHT22;9161;47.348;9.648;2022-09-12T01:20:51;10.80;99.90
18073;DHT22;9161;47.348;9.648;2022-09-12T01:25:47;10.60;99.90
18073;DHT22;9161;47.348;9.648;2022-09-12T01:30:47;10.60;99.90
18073;DHT22;9161;47.348;9.648;2022-09-12T01:35:39;10.50;99.90
18073;DHT22;9161;47.348;9.648;2022-09-12T01:40:29;10.40;99.90
18073;DHT22;9161;47.348;9.648;2022-09-12T01:45:17;10.40;99.90
18073;DHT22;9161;47.348;9.648;2022-09-12T01:50:06;10.40;99.90
18073;DHT22;9161;47.348;9.648;2022-09-12T01:54:54;10.20;99.90
18073;DHT22;9161;47.348;9.648;2022-09-12T01:59:43;10.30;99.90
18073;DHT22;9161;47.348;9.648;2022-09-12T02:04:29;10.20;99.90
18073;DHT22;9161;47.348;9.648;2022-09-12T02:09:18;10.40;99.90
18073;DHT22;9161;47.348;9.648;2022-09-12T02:14:06;10.60;99.90
18073;DHT22;9161;47.348;9.648;2022-09-12T02:18:54;10.50;99.90
18073;DHT22;9161;47.348;9.648;2022-09-12T02:23:44;10.30;99.90
18073;DHT22;9161;47.348;9.648;2022-09-12T02:28:34;10.20;99.90
18073;DHT22;9161;47.348;9.648;2022-09-12T02:33:23;10.00;99.90
18073;DHT22;9161;47.348;9.648;2022-09-12T02:38:12;10.20;99.90
18073;DHT22;9161;47.348;9.648;2022-09-12T02:42:57;10.20;99.90
18073;DHT22;9161;47.348;9.648;2022-09-12T02:47:44;10.10;99.90
18073;DHT22;9161;47.348;9.648;2022-09-12T02:52:31;10.40;99.90
18073;DHT22;9161;47.348;9.648;2022-09-12T02:57:16;10.50;99.90
18073;DHT22;9161;47.348;9.648;2022-09-12T03:02:13;10.40;99.90
18073;DHT22;9161;47.348;9.648;2022-09-12T03:07:10;10.30;99.90
18073;DHT22;9161;47.348;9.648;2022-09-12T03:12:06;10.10;99.90
18073;DHT22;9161;47.348;9.648;2022-09-12T03:16:58;9.90;99.90
18073;DHT22;9161;47.348;9.648;2022-09-12T03:21:54;9.90;99.90
18073;DHT22;9161;47.348;9.648;2022-09-12T03:26:43;9.80;99.90
18073;DHT22;9161;47.348;9.648;2022-09-12T03:31:29;9.80;99.90
18073;DHT22;9161;47.348;9.648;2022-09-12T03:36:15;9.80;99.90
18073;DHT22;9161;47.348;9.648;2022-09-12T03:41:00;9.70;99.90
18073;DHT22;9161;47.348;9.648;2022-09-12T03:45:44;9.70;99.90
18073;DHT22;9161;47.348;9.648;2022-09-12T03:50:32;9.60;99.90
18073;DHT22;9161;47.348;9.648;2022-09-12T03:55:16;9.50;99.90
18073;DHT22;9161;47.348;9.648;2022-09-12T03:59:59;9.50;99.90
18073;DHT22;9161;47.348;9.648;2022-09-12T04:04:45;9.70;99.90
18073;DHT22;9161;47.348;9.648;2022-09-12T04:09:28;9.70;99.90
18073;DHT22;9161;47.348;9.648;2022-09-12T04:14:12;9.60;99.90
18073;DHT22;9161;47.348;9.648;2022-09-12T04:18:55;9.60;99.90
18073;DHT22;9161;47.348;9.648;2022-09-12T04:23:40;9.60;99.90
18073;DHT22;9161;47.348;9.648;2022-09-12T04:28:24;9.50;99.90
18073;DHT22;9161;47.348;9.648;2022-09-12T04:33:09;9.40;99.90
18073;DHT22;9161;47.348;9.648;2022-09-12T04:37:53;9.40;99.90
18073;DHT22;9161;47.348;9.648;2022-09-12T04:42:38;9.80;99.90
18073;DHT22;9161;47.348;9.648;2022-09-12T04:47:21;9.70;99.90
18073;DHT22;9161;47.348;9.648;2022-09-12T04:52:05;9.70;99.90
18073;DHT22;9161;47.348;9.648;2022-09-12T04:56:49;9.60;99.90
18073;DHT22;9161;47.348;9.648;2022-09-12T05:01:35;9.60;99.90
18073;DHT22;9161;47.348;9.648;2022-09-12T05:06:20;9.40;99.90
18073;DHT22;9161;47.348;9.648;2022-09-12T05:11:04;9.30;99.90
18073;DHT22;9161;47.348;9.648;2022-09-12T05:15:55;9.20;99.90
18073;DHT22;9161;47.348;9.648;2022-09-12T05:20:40;9.50;99.90
18073;DHT22;9161;47.348;9.648;2022-09-12T05:25:23;9.50;99.90
18073;DHT22;9161;47.348;9.648;2022-09-12T05:30:08;9.60;99.90
18073;DHT22;9161;47.348;9.648;2022-09-12T05:34:52;9.60;99.90
18073;DHT22;9161;47.348;9.648;2022-09-12T05:39:37;9.60;99.90
18073;DHT22;9161;47.348;9.648;2022-09-12T05:44:20;9.50;99.90
18073;DHT22;9161;47.348;9.648;2022-09-12T05:49:05;9.50;99.90
18073;DHT22;9161;47.348;9.648;2022-09-12T05:53:51;9.50;99.90
18073;DHT22;9161;47.348;9.648;2022-09-12T05:58:37;9.60;99.90
18073;DHT22;9161;47.348;9.648;2022-09-12T06:03:22;9.60;99.90
18073;DHT22;9161;47.348;9.648;2022-09-12T06:08:06;9.50;99.90
18073;DHT22;9161;47.348;9.648;2022-09-12T06:12:49;9.50;99.90
18073;DHT22;9161;47.348;9.648;2022-09-12T06:17:34;9.60;99.90
18073;DHT22;9161;47.348;9.648;2022-09-12T06:22:17;9.70;99.90
18073;DHT22;9161;47.348;9.648;2022-09-12T06:27:01;9.80;99.90
18073;DHT22;9161;47.348;9.648;2022-09-12T06:31:44;10.30;99.90
18073;DHT22;9161;47.348;9.648;2022-09-12T06:36:31;11.00;99.90
18073;DHT22;9161;47.348;9.648;2022-09-12T06:41:15;11.60;99.90
18073;DHT22;9161;47.348;9.648;2022-09-12T06:45:58;12.30;99.90
18073;DHT22;9161;47.348;9.648;2022-09-12T06:50:42;12.90;99.90
18073;DHT22;9161;47.348;9.648;2022-09-12T06:55:27;13.40;99.90
18073;DHT22;9161;47.348;9.648;2022-09-12T07:00:12;13.80;99.90
18073;DHT22;9161;47.348;9.648;2022-09-12T07:04:55;14.30;99.90
18073;DHT22;9161;47.348;9.648;2022-09-12T07:09:39;14.50;99.90
18073;DHT22;9161;47.348;9.648;2022-09-12T07:14:24;15.00;99.90
18073;DHT22;9161;47.348;9.648;2022-09-12T07:19:08;15.30;99.90
18073;DHT22;9161;47.348;9.648;2022-09-12T07:23:52;15.70;99.90
18073;DHT22;9161;47.348;9.648;2022-09-12T07:28:39;16.20;99.90
18073;DHT22;9161;47.348;9.648;2022-09-12T07:33:26;16.60;99.90
18073;DHT22;9161;47.348;9.648;2022-09-12T07:38:10;17.00;99.90
18073;DHT22;9161;47.348;9.648;2022-09-12T07:42:53;17.30;99.90
18073;DHT22;9161;47.348;9.648;2022-09-12T07:47:37;17.50;99.90
18073;DHT22;9161;47.348;9.648;2022-09-12T07:52:23;17.90;99.90
18073;DHT22;9161;47.348;9.648;2022-09-12T07:57:06;18.40;99.90
18073;DHT22;9161;47.348;9.648;2022-09-12T08:01:50;18.50;99.90
18073;DHT22;9161;47.348;9.648;2022-09-12T08:06:33;18.90;99.90
18073;DHT22;9161;47.348;9.648;2022-09-12T08:11:20;19.20;99.90
18073;DHT22;9161;47.348;9.648;2022-09-12T08:16:05;20.00;99.90
18073;DHT22;9161;47.348;9.648;2022-09-12T08:20:55;20.30;99.90
18073;DHT22;9161;47.348;9.648;2022-09-12T08:25:38;20.50;99.90
18073;DHT22;9161;47.348;9.648;2022-09-12T08:30:23;21.10;99.90
18073;DHT22;9161;47.348;9.648;2022-09-12T08:35:07;21.30;99.90
18073;DHT22;9161;47.348;9.648;2022-09-12T08:39:51;21.40;99.90
18073;DHT22;9161;47.348;9.648;2022-09-12T08:44:49;21.90;99.90
18073;DHT22;9161;47.348;9.648;2022-09-12T08:49:44;22.10;99.90
18073;DHT22;9161;47.348;9.648;2022-09-12T08:54:30;22.30;99.90
18073;DHT22;9161;47.348;9.648;2022-09-12T08:59:14;22.70;99.90
18073;DHT22;9161;47.348;9.648;2022-09-12T09:04:19;23.30;99.90
18073;DHT22;9161;47.348;9.648;2022-09-12T09:09:15;23.50;99.90
18073;DHT22;9161;47.348;9.648;2022-09-12T09:14:11;23.50;99.90
18073;DHT22;9161;47.348;9.648;2022-09-12T09:19:18;23.90;99.90
18073;DHT22;9161;47.348;9.648;2022-09-12T09:24:05;23.90;99.90
18073;DHT22;9161;47.348;9.648;2022-09-12T09:28:56;24.30;99.90
18073;DHT22;9161;47.348;9.648;2022-09-12T09:33:41;24.20;99.90
18073;DHT22;9161;47.348;9.648;2022-09-12T09:38:33;24.30;99.90
18073;DHT22;9161;47.348;9.648;2022-09-12T09:43:21;24.80;99.90
18073;DHT22;9161;47.348;9.648;2022-09-12T09:48:14;25.00;99.90
18073;DHT22;9161;47.348;9.648;2022-09-12T09:52:59;25.10;99.90
18073;DHT22;9161;47.348;9.648;2022-09-12T09:57:45;25.50;99.90
18073;DHT22;9161;47.348;9.648;2022-09-12T10:02:28;26.00;99.90
18073;DHT22;9161;47.348;9.648;2022-09-12T10:07:31;27.00;99.90
18073;DHT22;9161;47.348;9.648;2022-09-12T10:12:43;26.90;99.90
18073;DHT22;9161;47.348;9.648;2022-09-12T10:17:29;26.90;99.90
18073;DHT22;9161;47.348;9.648;2022-09-12T10:22:18;26.90;99.90
18073;DHT22;9161;47.348;9.648;2022-09-12T10:27:08;26.30;99.90
18073;DHT22;9161;47.348;9.648;2022-09-12T10:31:57;27.00;99.90
18073;DHT22;9161;47.348;9.648;2022-09-12T10:36:42;27.50;99.90
18073;DHT22;9161;47.348;9.648;2022-09-12T10:41:34;28.10;99.90
18073;DHT22;9161;47.348;9.648;2022-09-12T10:46:29;28.40;99.90
18073;DHT22;9161;47.348;9.648;2022-09-12T10:51:25;28.70;99.90
18073;DHT22;9161;47.348;9.648;2022-09-12T10:56:22;29.60;99.20
18073;DHT22;9161;47.348;9.648;2022-09-12T11:01:18;29.50;98.10
18073;DHT22;9161;47.348;9.648;2022-09-12T11:06:11;29.80;98.70
18073;DHT22;9161;47.348;9.648;2022-09-12T11:11:04;30.20;98.60
18073;DHT22;9161;47.348;9.648;2022-09-12T11:16:05;30.30;98.40
18073;DHT22;9161;47.348;9.648;2022-09-12T11:21:03;29.90;95.60
18073;DHT22;9161;47.348;9.648;2022-09-12T11:25:56;29.60;93.00
18073;DHT22;9161;47.348;9.648;2022-09-12T11:30:52;30.00;96.40
18073;DHT22;9161;47.348;9.648;2022-09-12T11:35:44;29.70;95.40
18073;DHT22;9161;47.348;9.648;2022-09-12T11:40:39;29.00;96.80
18073;DHT22;9161;47.348;9.648;2022-09-12T11:45:28;29.50;96.80
18073;DHT22;9161;47.348;9.648;2022-09-12T11:50:22;29.30;97.30
18073;DHT22;9161;47.348;9.648;2022-09-12T11:55:15;30.20;98.60
18073;DHT22;9161;47.348;9.648;2022-09-12T12:00:03;30.50;98.50
18073;DHT22;9161;47.348;9.648;2022-09-12T12:04:59;30.20;97.80
18073;DHT22;9161;47.348;9.648;2022-09-12T12:09:46;30.00;96.30
18073;DHT22;9161;47.348;9.648;2022-09-12T12:14:39;30.30;96.70
18073;DHT22;9161;47.348;9.648;2022-09-12T12:19:32;30.40;99.00
18073;DHT22;9161;47.348;9.648;2022-09-12T12:24:20;30.60;97.40
18073;DHT22;9161;47.348;9.648;2022-09-12T12:29:04;31.10;96.20
18073;DHT22;9161;47.348;9.648;2022-09-12T12:34:27;29.60;96.80
18073;DHT22;9161;47.348;9.648;2022-09-12T12:44:49;31.10;98.50
18073;DHT22;9161;47.348;9.648;2022-09-12T12:49:35;30.80;96.90
18073;DHT22;9161;47.348;9.648;2022-09-12T12:54:30;31.80;97.70
18073;DHT22;9161;47.348;9.648;2022-09-12T12:59:18;31.70;97.70
18073;DHT22;9161;47.348;9.648;2022-09-12T13:04:04;32.10;97.00
18073;DHT22;9161;47.348;9.648;2022-09-12T13:08:58;31.90;94.20
18073;DHT22;9161;47.348;9.648;2022-09-12T13:13:48;31.60;95.00
18073;DHT22;9161;47.348;9.648;2022-09-12T13:18:40;32.10;94.70
18073;DHT22;9161;47.348;9.648;2022-09-12T13:23:25;32.30;95.00
18073;DHT22;9161;47.348;9.648;2022-09-12T13:28:16;32.80;93.20
18073;DHT22;9161;47.348;9.648;2022-09-12T13:33:14;34.10;92.80
18073;DHT22;9161;47.348;9.648;2022-09-12T13:38:06;34.20;92.00
18073;DHT22;9161;47.348;9.648;2022-09-12T13:43:08;32.70;92.00
18073;DHT22;9161;47.348;9.648;2022-09-12T13:47:55;35.00;91.40
18073;DHT22;9161;47.348;9.648;2022-09-12T13:52:45;35.50;89.60
18073;DHT22;9161;47.348;9.648;2022-09-12T13:57:33;35.90;89.80
18073;DHT22;9161;47.348;9.648;2022-09-12T14:02:20;34.70;89.90
18073;DHT22;9161;47.348;9.648;2022-09-12T14:07:12;33.50;89.20
18073;DHT22;9161;47.348;9.648;2022-09-12T14:11:57;35.30;90.70
18073;DHT22;9161;47.348;9.648;2022-09-12T14:16:40;36.00;90.20
18073;DHT22;9161;47.348;9.648;2022-09-12T14:21:33;36.00;87.00
18073;DHT22;9161;47.348;9.648;2022-09-12T14:26:19;36.30;83.90
18073;DHT22;9161;47.348;9.648;2022-09-12T14:31:06;36.20;83.70
18073;DHT22;9161;47.348;9.648;2022-09-12T14:35:51;36.20;85.50
18073;DHT22;9161;47.348;9.648;2022-09-12T14:40:40;35.70;83.80
18073;DHT22;9161;47.348;9.648;2022-09-12T14:45:28;35.30;85.20
18073;DHT22;9161;47.348;9.648;2022-09-12T14:50:15;34.10;84.20
18073;DHT22;9161;47.348;9.648;2022-09-12T14:55:00;33.00;82.20
18073;DHT22;9161;47.348;9.648;2022-09-12T14:59:44;32.70;84.20
18073;DHT22;9161;47.348;9.648;2022-09-12T15:04:39;32.60;87.70
18073;DHT22;9161;47.348;9.648;2022-09-12T15:09:23;31.10;86.80
18073;DHT22;9161;47.348;9.648;2022-09-12T15:14:12;30.90;90.00
18073;DHT22;9161;47.348;9.648;2022-09-12T15:18:55;31.30;91.00
18073;DHT22;9161;47.348;9.648;2022-09-12T15:23:43;31.10;90.60
18073;DHT22;9161;47.348;9.648;2022-09-12T15:28:29;29.40;89.90
18073;DHT22;9161;47.348;9.648;2022-09-12T15:33:13;29.50;90.50
18073;DHT22;9161;47.348;9.648;2022-09-12T15:37:56;29.30;90.80
18073;DHT22;9161;47.348;9.648;2022-09-12T15:42:41;29.50;90.30
18073;DHT22;9161;47.348;9.648;2022-09-12T15:47:25;28.20;90.10
18073;DHT22;9161;47.348;9.648;2022-09-12T15:52:13;28.90;91.50
18073;DHT22;9161;47.348;9.648;2022-09-12T15:56:57;28.80;90.40
18073;DHT22;9161;47.348;9.648;2022-09-12T16:01:42;28.80;91.70
18073;DHT22;9161;47.348;9.648;2022-09-12T16:06:26;28.30;90.80
18073;DHT22;9161;47.348;9.648;2022-09-12T16:11:19;27.80;91.00
18073;DHT22;9161;47.348;9.648;2022-09-12T16:16:04;27.90;92.00
18073;DHT22;9161;47.348;9.648;2022-09-12T16:20:52;28.10;92.40
18073;DHT22;9161;47.348;9.648;2022-09-12T16:25:36;27.60;91.00
18073;DHT22;9161;47.348;9.648;2022-09-12T16:30:19;27.70;93.30
18073;DHT22;9161;47.348;9.648;2022-09-12T16:35:04;27.80;92.40
18073;DHT22;9161;47.348;9.648;2022-09-12T16:39:49;27.60;93.00
18073;DHT22;9161;47.348;9.648;2022-09-12T16:44:33;26.90;94.10
18073;DHT22;9161;47.348;9.648;2022-09-12T16:49:16;26.00;94.80
18073;DHT22;9161;47.348;9.648;2022-09-12T16:54:00;25.40;95.70
18073;DHT22;9161;47.348;9.648;2022-09-12T16:58:45;24.30;96.80
18073;DHT22;9161;47.348;9.648;2022-09-12T17:03:30;23.40;98.10
18073;DHT22;9161;47.348;9.648;2022-09-12T17:08:13;22.60;99.30
18073;DHT22;9161;47.348;9.648;2022-09-12T17:12:57;22.10;99.90
18073;DHT22;9161;47.348;9.648;2022-09-12T17:17:42;21.50;99.90
18073;DHT22;9161;47.348;9.648;2022-09-12T17:22:26;21.00;99.90
18073;DHT22;9161;47.348;9.648;2022-09-12T17:27:11;20.60;99.90
18073;DHT22;9161;47.348;9.648;2022-09-12T17:31:54;20.40;99.90
18073;DHT22;9161;47.348;9.648;2022-09-12T17:36:40;20.20;99.90
18073;DHT22;9161;47.348;9.648;2022-09-12T17:41:27;19.70;99.90
18073;DHT22;9161;47.348;9.648;2022-09-12T17:46:13;19.50;99.90
18073;DHT22;9161;47.348;9.648;2022-09-12T17:50:56;19.30;99.90
18073;DHT22;9161;47.348;9.648;2022-09-12T17:55:42;19.10;99.90
18073;DHT22;9161;47.348;9.648;2022-09-12T18:00:26;18.70;99.90
18073;DHT22;9161;47.348;9.648;2022-09-12T18:05:30;18.40;99.90
18073;DHT22;9161;47.348;9.648;2022-09-12T18:10:14;18.20;99.90
18073;DHT22;9161;47.348;9.648;2022-09-12T18:14:59;18.00;99.90
18073;DHT22;9161;47.348;9.648;2022-09-12T18:19:43;17.90;99.90
18073;DHT22;9161;47.348;9.648;2022-09-12T18:24:33;17.60;99.90
18073;DHT22;9161;47.348;9.648;2022-09-12T18:29:18;17.30;99.90
18073;DHT22;9161;47.348;9.648;2022-09-12T18:34:03;17.20;99.90
18073;DHT22;9161;47.348;9.648;2022-09-12T18:38:48;17.10;99.90
18073;DHT22;9161;47.348;9.648;2022-09-12T18:43:32;16.90;99.90
18073;DHT22;9161;47.348;9.648;2022-09-12T18:48:16;16.90;99.90
18073;DHT22;9161;47.348;9.648;2022-09-12T18:53:01;16.70;99.90
18073;DHT22;9161;47.348;9.648;2022-09-12T18:57:45;16.70;99.90
18073;DHT22;9161;47.348;9.648;2022-09-12T19:02:29;16.70;99.90
18073;DHT22;9161;47.348;9.648;2022-09-12T19:07:12;16.60;99.90
18073;DHT22;9161;47.348;9.648;2022-09-12T19:11:59;16.50;99.90
18073;DHT22;9161;47.348;9.648;2022-09-12T19:16:44;16.60;99.90
18073;DHT22;9161;47.348;9.648;2022-09-12T19:21:30;16.20;99.90
18073;DHT22;9161;47.348;9.648;2022-09-12T19:26:15;16.10;99.90
18073;DHT22;9161;47.348;9.648;2022-09-12T19:31:03;15.90;99.90
18073;DHT22;9161;47.348;9.648;2022-09-12T19:35:47;15.70;99.90
18073;DHT22;9161;47.348;9.648;2022-09-12T19:40:31;15.60;99.90
18073;DHT22;9161;47.348;9.648;2022-09-12T19:45:14;15.60;99.90
18073;DHT22;9161;47.348;9.648;2022-09-12T19:49:59;15.70;99.90
18073;DHT22;9161;47.348;9.648;2022-09-12T19:54:43;15.70;99.90
18073;DHT22;9161;47.348;9.648;2022-09-12T19:59:26;15.80;99.90
18073;DHT22;9161;47.348;9.648;2022-09-12T20:04:10;15.70;99.90
18073;DHT22;9161;47.348;9.648;2022-09-12T20:08:55;15.70;99.90
18073;DHT22;9161;47.348;9.648;2022-09-12T20:13:39;15.60;99.90
18073;DHT22;9161;47.348;9.648;2022-09-12T20:18:22;15.60;99.90
18073;DHT22;9161;47.348;9.648;2022-09-12T20:23:06;15.50;99.90
18073;DHT22;9161;47.348;9.648;2022-09-12T20:27:51;15.40;99.90
18073;DHT22;9161;47.348;9.648;2022-09-12T20:32:41;15.20;99.90
18073;DHT22;9161;47.348;9.648;2022-09-12T20:37:24;15.20;99.90
18073;DHT22;9161;47.348;9.648;2022-09-12T20:42:08;15.30;99.90
18073;DHT22;9161;47.348;9.648;2022-09-12T20:46:53;15.90;99.90
18073;DHT22;9161;47.348;9.648;2022-09-12T20:51:37;15.90;99.90
18073;DHT22;9161;47.348;9.648;2022-09-12T20:56:21;15.70;99.90
18073;DHT22;9161;47.348;9.648;2022-09-12T21:01:08;15.40;99.90
18073;DHT22;9161;47.348;9.648;2022-09-12T21:05:54;15.30;99.90
18073;DHT22;9161;47.348;9.648;2022-09-12T21:10:39;15.00;99.90
18073;DHT22;9161;47.348;9.648;2022-09-12T21:15:23;14.90;99.90
18073;DHT22;9161;47.348;9.648;2022-09-12T21:20:07;14.80;99.90
18073;DHT22;9161;47.348;9.648;2022-09-12T21:24:53;14.70;99.90
18073;DHT22;9161;47.348;9.648;2022-09-12T21:29:37;14.60;99.90
18073;DHT22;9161;47.348;9.648;2022-09-12T21:34:20;14.70;99.90
18073;DHT22;9161;47.348;9.648;2022-09-12T21:39:04;14.60;99.90
18073;DHT22;9161;47.348;9.648;2022-09-12T21:43:49;14.50;99.90
18073;DHT22;9161;47.348;9.648;2022-09-12T21:48:33;14.30;99.90
18073;DHT22;9161;47.348;9.648;2022-09-12T21:53:16;14.30;99.90
18073;DHT22;9161;47.348;9.648;2022-09-12T21:58:00;14.30;99.90
18073;DHT22;9161;47.348;9.648;2022-09-12T22:02:45;14.30;99.90
18073;DHT22;9161;47.348;9.648;2022-09-12T22:07:29;14.20;99.90
18073;DHT22;9161;47.348;9.648;2022-09-12T22:12:12;14.20;99.90
18073;DHT22;9161;47.348;9.648;2022-09-12T22:16:56;14.10;99.90
18073;DHT22;9161;47.348;9.648;2022-09-12T22:21:41;13.90;99.90
18073;DHT22;9161;47.348;9.648;2022-09-12T22:26:45;13.80;99.90
18073;DHT22;9161;47.348;9.648;2022-09-12T22:31:28;13.70;99.90
18073;DHT22;9161;47.348;9.648;2022-09-12T22:36:12;13.70;99.90
18073;DHT22;9161;47.348;9.648;2022-09-12T22:40:57;13.70;99.90
18073;DHT22;9161;47.348;9.648;2022-09-12T22:45:41;13.80;99.90
18073;DHT22;9161;47.348;9.648;2022-09-12T22:50:24;13.80;99.90
18073;DHT22;9161;47.348;9.648;2022-09-12T22:55:08;13.70;99.90
18073;DHT22;9161;47.348;9.648;2022-09-12T22:59:53;13.80;99.90
18073;DHT22;9161;47.348;9.648;2022-09-12T23:04:37;13.80;99.90
18073;DHT22;9161;47.348;9.648;2022-09-12T23:09:21;13.90;99.90
18073;DHT22;9161;47.348;9.648;2022-09-12T23:14:04;13.90;99.90
18073;DHT22;9161;47.348;9.648;2022-09-12T23:18:50;13.80;99.90
18073;DHT22;9161;47.348;9.648;2022-09-12T23:23:34;13.50;99.90
18073;DHT22;9161;47.348;9.648;2022-09-12T23:28:17;13.40;99.90
18073;DHT22;9161;47.348;9.648;2022-09-12T23:33:01;13.50;99.90
18073;DHT22;9161;47.348;9.648;2022-09-12T23:37:46;13.40;99.90
18073;DHT22;9161;47.348;9.648;2022-09-12T23:42:29;13.50;99.90
18073;DHT22;9161;47.348;9.648;2022-09-12T23:47:13;13.50;99.90
18073;DHT22;9161;47.348;9.648;2022-09-12T23:51:56;13.70;99.90
18073;DHT22;9161;47.348;9.648;2022-09-12T23:56:41;13.70;99.90
